createdAt,value
2017-09-21T00:02:10.205Z,14.60
2017-09-21T00:04:38.498Z,16.00
2017-09-21T00:07:06.837Z,16.40
2017-09-21T00:09:35.164Z,16.00
2017-09-21T00:12:03.505Z,14.63
2017-09-21T00:14:31.796Z,16.80
2017-09-21T00:17:00.150Z,15.20
2017-09-21T00:19:29.244Z,13.70
2017-09-21T00:21:57.587Z,16.00
2017-09-21T00:24:25.889Z,14.63
2017-09-21T00:26:54.202Z,16.20
2017-09-21T00:29:22.527Z,14.80
2017-09-21T00:31:50.832Z,15.13
2017-09-21T00:34:19.141Z,15.40
2017-09-21T00:36:47.475Z,15.20
2017-09-21T00:39:15.800Z,14.97
2017-09-21T00:41:44.889Z,15.90
2017-09-21T00:44:13.564Z,17.10
2017-09-21T00:46:41.911Z,16.10
2017-09-21T00:49:10.209Z,17.33
2017-09-21T00:51:38.508Z,15.40
2017-09-21T00:54:06.828Z,16.43
2017-09-21T00:56:35.973Z,15.63
2017-09-21T00:59:04.268Z,15.77
2017-09-21T01:01:32.560Z,16.67
2017-09-21T01:04:00.877Z,15.97
2017-09-21T01:06:29.203Z,15.57
2017-09-21T01:08:57.525Z,15.03
2017-09-21T01:11:25.838Z,16.67
2017-09-21T01:13:54.169Z,16.30
2017-09-21T01:16:23.262Z,17.27
2017-09-21T01:18:51.620Z,15.33
2017-09-21T01:21:19.929Z,15.57
2017-09-21T01:23:48.224Z,15.80
2017-09-21T01:26:16.560Z,15.13
2017-09-21T01:28:44.934Z,13.83
2017-09-21T01:31:13.253Z,15.23
2017-09-21T01:33:41.558Z,16.97
2017-09-21T01:36:09.926Z,15.47
2017-09-21T01:38:38.220Z,14.40
2017-09-21T01:41:06.555Z,15.17
2017-09-21T01:43:34.853Z,14.60
2017-09-21T01:46:03.181Z,17.80
2017-09-21T01:48:32.847Z,17.47
2017-09-21T01:51:01.929Z,16.77
2017-09-21T01:53:30.273Z,14.90
2017-09-21T01:55:59.337Z,16.70
2017-09-21T01:58:27.657Z,16.00
2017-09-21T02:00:55.961Z,16.27
2017-09-21T02:03:24.287Z,15.93
2017-09-21T02:05:53.362Z,16.70
2017-09-21T02:08:21.702Z,15.93
2017-09-21T02:10:50.962Z,14.93
2017-09-21T02:13:19.298Z,15.20
2017-09-21T02:15:47.600Z,15.43
2017-09-21T02:18:15.932Z,17.30
2017-09-21T02:20:45.029Z,13.80
2017-09-21T02:23:13.350Z,16.70
2017-09-21T02:25:42.410Z,16.37
2017-09-21T02:28:10.725Z,15.30
2017-09-21T02:30:39.214Z,15.20
2017-09-21T02:33:07.543Z,15.80
2017-09-21T02:35:35.844Z,15.90
2017-09-21T02:38:04.177Z,16.30
2017-09-21T02:40:32.530Z,14.93
2017-09-21T02:43:00.820Z,14.30
2017-09-21T02:45:29.124Z,14.90
2017-09-21T02:47:57.523Z,13.67
2017-09-21T02:50:25.868Z,14.37
2017-09-21T02:52:54.183Z,14.10
2017-09-21T02:55:22.480Z,14.50
2017-09-21T02:57:50.847Z,14.30
2017-09-21T03:00:19.220Z,12.97
2017-09-21T03:02:47.554Z,13.30
2017-09-21T03:05:15.874Z,11.50
2017-09-21T03:07:44.177Z,15.27
2017-09-21T03:10:12.512Z,13.20
2017-09-21T03:12:40.882Z,13.30
2017-09-21T03:15:09.318Z,15.03
2017-09-21T03:17:38.374Z,14.93
2017-09-21T03:20:06.670Z,13.87
2017-09-21T03:22:35.022Z,14.17
2017-09-21T03:25:04.200Z,13.80
2017-09-21T03:27:32.524Z,13.60
2017-09-21T03:30:00.818Z,13.00
2017-09-21T03:32:29.141Z,13.03
2017-09-21T03:34:57.483Z,13.67
2017-09-21T03:37:25.804Z,14.47
2017-09-21T03:39:54.098Z,14.43
2017-09-21T03:42:22.436Z,13.47
2017-09-21T03:44:50.838Z,15.60
2017-09-21T03:47:19.372Z,13.77
2017-09-21T03:49:48.507Z,14.77
2017-09-21T03:52:16.812Z,14.20
2017-09-21T03:54:45.140Z,14.00
2017-09-21T03:57:13.451Z,12.87
2017-09-21T03:59:41.742Z,15.90
2017-09-21T04:02:10.072Z,14.43
2017-09-21T04:04:38.357Z,14.27
2017-09-21T04:07:06.675Z,13.27
2017-09-21T04:09:35.005Z,13.77
2017-09-21T04:12:04.081Z,14.00
2017-09-21T04:14:32.374Z,15.10
2017-09-21T04:17:00.689Z,14.90
2017-09-21T04:19:28.992Z,17.27
2017-09-21T04:21:57.320Z,15.40
2017-09-21T04:24:25.620Z,15.40
2017-09-21T04:26:53.961Z,16.53
2017-09-21T04:29:22.251Z,18.27
2017-09-21T04:31:50.579Z,16.93
2017-09-21T04:34:18.985Z,16.10
2017-09-21T04:36:47.291Z,17.03
2017-09-21T04:39:15.594Z,17.00
2017-09-21T04:41:43.925Z,17.23
2017-09-21T04:44:12.252Z,18.90
2017-09-21T04:46:41.317Z,16.93
2017-09-21T04:49:09.628Z,18.63
2017-09-21T04:51:37.942Z,17.87
2017-09-21T04:54:06.274Z,17.30
2017-09-21T04:56:34.605Z,16.07
2017-09-21T04:59:02.897Z,17.10
2017-09-21T05:01:32.052Z,16.93
2017-09-21T05:04:00.388Z,18.13
2017-09-21T05:06:28.697Z,17.77
2017-09-21T05:08:57.027Z,16.47
2017-09-21T05:11:26.098Z,20.13
2017-09-21T05:13:54.433Z,18.00
2017-09-21T05:16:22.739Z,20.10
2017-09-21T05:18:51.826Z,17.40
2017-09-21T05:21:20.154Z,19.97
2017-09-21T05:23:48.450Z,19.43
2017-09-21T05:26:16.775Z,20.87
2017-09-21T05:28:45.842Z,18.27
2017-09-21T05:31:14.137Z,18.73
2017-09-21T05:33:42.452Z,21.27
2017-09-21T05:36:10.752Z,19.97
2017-09-21T05:38:39.115Z,21.10
2017-09-21T05:41:08.182Z,18.80
2017-09-21T05:43:36.487Z,18.70
2017-09-21T05:46:04.812Z,18.07
2017-09-21T05:48:33.131Z,18.90
2017-09-21T05:51:02.238Z,16.90
2017-09-21T05:53:30.536Z,19.70
2017-09-21T05:55:58.868Z,17.80
2017-09-21T05:58:27.259Z,20.53
2017-09-21T06:00:56.320Z,18.67
2017-09-21T06:03:24.639Z,19.03
2017-09-21T06:05:52.963Z,18.40
2017-09-21T06:08:21.285Z,17.93
2017-09-21T06:10:50.348Z,18.73
2017-09-21T06:13:18.693Z,20.70
2017-09-21T06:15:47.028Z,21.47
2017-09-21T06:18:15.450Z,19.57
2017-09-21T06:20:43.777Z,19.70
2017-09-21T06:23:12.153Z,19.83
2017-09-21T06:25:40.485Z,22.03
2017-09-21T06:28:08.780Z,19.23
2017-09-21T06:30:37.097Z,19.90
2017-09-21T06:33:05.410Z,19.83
2017-09-21T06:35:33.733Z,20.80
2017-09-21T06:38:02.789Z,19.87
2017-09-21T06:40:31.129Z,22.83
2017-09-21T06:42:59.423Z,20.50
2017-09-21T06:45:27.750Z,20.07
2017-09-21T06:47:56.081Z,19.43
2017-09-21T06:50:24.387Z,20.23
2017-09-21T06:52:52.808Z,22.40
2017-09-21T06:55:21.159Z,22.87
2017-09-21T06:57:49.489Z,18.30
2017-09-21T07:00:17.846Z,22.00
2017-09-21T07:02:46.164Z,20.90
2017-09-21T07:05:14.461Z,18.77
2017-09-21T07:07:42.800Z,20.50
2017-09-21T07:10:11.102Z,20.37
2017-09-21T07:12:39.417Z,19.40
2017-09-21T07:15:07.764Z,23.03
2017-09-21T07:17:36.071Z,21.77
2017-09-21T07:20:04.383Z,20.40
2017-09-21T07:22:33.477Z,23.67
2017-09-21T07:25:01.888Z,21.70
2017-09-21T07:27:36.674Z,20.17
2017-09-21T07:30:05.783Z,19.37
2017-09-21T07:32:34.857Z,19.47
2017-09-21T07:35:03.164Z,20.40
2017-09-21T07:37:31.486Z,19.43
2017-09-21T07:39:59.829Z,20.93
2017-09-21T07:42:28.127Z,19.80
2017-09-21T07:44:56.441Z,20.13
2017-09-21T07:47:24.781Z,20.60
2017-09-21T07:49:53.085Z,21.57
2017-09-21T07:52:21.401Z,24.20
2017-09-21T07:54:49.775Z,21.50
2017-09-21T07:57:18.069Z,23.47
2017-09-21T07:59:46.421Z,21.10
2017-09-21T08:02:15.009Z,20.63
2017-09-21T08:04:43.316Z,18.50
2017-09-21T08:07:11.826Z,20.63
2017-09-21T08:09:40.138Z,22.20
2017-09-21T08:12:08.482Z,20.53
2017-09-21T08:14:36.785Z,20.73
2017-09-21T08:17:05.121Z,21.33
2017-09-21T08:19:33.436Z,20.70
2017-09-21T08:22:01.737Z,21.07
2017-09-21T08:24:30.074Z,19.37
2017-09-21T08:26:59.152Z,21.70
2017-09-21T08:29:27.460Z,18.30
2017-09-21T08:31:55.792Z,18.90
2017-09-21T08:34:24.884Z,19.80
2017-09-21T08:36:53.213Z,19.67
2017-09-21T08:39:21.580Z,18.13
2017-09-21T08:41:50.048Z,18.00
2017-09-21T08:44:18.367Z,18.60
2017-09-21T08:46:46.669Z,18.63
2017-09-21T08:49:15.008Z,18.20
2017-09-21T08:51:43.349Z,18.17
2017-09-21T08:54:11.647Z,18.80
2017-09-21T08:56:39.987Z,17.13
2017-09-21T08:59:08.351Z,17.60
2017-09-21T09:01:37.432Z,16.43
2017-09-21T09:04:05.746Z,17.20
2017-09-21T09:06:34.099Z,16.20
2017-09-21T09:09:02.401Z,16.83
2017-09-21T09:11:30.701Z,18.47
2017-09-21T09:13:59.021Z,18.73
2017-09-21T09:16:27.327Z,16.80
2017-09-21T09:18:55.652Z,18.13
2017-09-21T09:21:23.944Z,17.90
2017-09-21T09:23:52.293Z,17.40
2017-09-21T09:26:21.358Z,15.83
2017-09-21T09:28:49.736Z,18.07
2017-09-21T09:31:18.057Z,17.33
2017-09-21T09:33:46.357Z,18.53
2017-09-21T09:36:15.142Z,16.27
2017-09-21T09:38:43.448Z,16.53
2017-09-21T09:41:11.773Z,16.30
2017-09-21T09:43:40.249Z,17.40
2017-09-21T09:46:09.343Z,18.57
2017-09-21T09:48:37.672Z,18.17
2017-09-21T09:51:05.998Z,16.23
2017-09-21T09:53:34.300Z,18.70
2017-09-21T09:56:02.631Z,16.80
2017-09-21T09:58:30.929Z,17.93
2017-09-21T10:00:59.410Z,18.10
2017-09-21T10:03:27.701Z,18.77
2017-09-21T10:05:56.040Z,19.10
2017-09-21T10:08:24.358Z,16.93
2017-09-21T10:10:52.662Z,16.63
2017-09-21T10:13:21.018Z,16.30
2017-09-21T10:15:49.326Z,17.53
2017-09-21T10:18:17.991Z,18.40
2017-09-21T10:20:47.154Z,16.87
2017-09-21T10:23:15.462Z,19.83
2017-09-21T10:25:43.791Z,19.20
2017-09-21T10:28:12.150Z,20.23
2017-09-21T10:30:40.446Z,17.27
2017-09-21T10:33:08.812Z,17.17
2017-09-21T10:35:37.157Z,16.27
2017-09-21T10:38:05.454Z,18.07
2017-09-21T10:40:33.756Z,17.43
2017-09-21T10:43:02.845Z,15.33
2017-09-21T10:45:31.140Z,17.03
2017-09-21T10:47:59.491Z,19.13
2017-09-21T10:50:27.830Z,15.13
2017-09-21T10:52:56.135Z,15.70
2017-09-21T10:55:24.471Z,15.27
2017-09-21T10:57:53.573Z,16.57
2017-09-21T11:00:21.897Z,16.07
2017-09-21T11:02:50.261Z,13.77
2017-09-21T11:05:18.620Z,13.60
2017-09-21T11:07:47.066Z,13.70
2017-09-21T11:10:15.420Z,14.63
2017-09-21T11:12:43.725Z,14.30
2017-09-21T11:15:12.049Z,15.27
2017-09-21T11:17:40.374Z,16.03
2017-09-21T11:20:08.682Z,15.87
2017-09-21T11:22:37.039Z,16.50
2017-09-21T11:25:05.346Z,17.27
2017-09-21T11:27:33.660Z,15.60
2017-09-21T11:30:02.023Z,18.10
2017-09-21T11:32:31.094Z,17.10
2017-09-21T11:34:59.436Z,16.40
2017-09-21T11:37:28.501Z,17.10
2017-09-21T11:39:57.100Z,16.53
2017-09-21T11:42:25.490Z,16.03
2017-09-21T11:44:53.814Z,16.40
2017-09-21T11:47:22.232Z,14.60
2017-09-21T11:49:50.571Z,14.57
2017-09-21T11:52:18.894Z,16.10
2017-09-21T11:54:48.012Z,14.13
2017-09-21T11:57:17.129Z,14.23
2017-09-21T11:59:46.272Z,14.60
2017-09-21T12:02:14.573Z,15.30
2017-09-21T12:04:42.909Z,15.33
2017-09-21T12:07:11.209Z,13.53
2017-09-21T12:09:39.547Z,14.87
2017-09-21T12:12:07.883Z,13.60
2017-09-21T12:14:36.191Z,12.80
2017-09-21T12:17:04.515Z,13.97
2017-09-21T12:19:32.951Z,13.20
2017-09-21T12:22:01.430Z,12.80
2017-09-21T12:24:29.762Z,11.60
2017-09-21T12:26:58.065Z,14.00
2017-09-21T12:29:26.397Z,14.13
2017-09-21T12:31:54.705Z,13.77
2017-09-21T12:34:23.045Z,13.07
2017-09-21T12:36:51.344Z,13.13
2017-09-21T12:39:19.654Z,12.23
2017-09-21T12:41:48.034Z,11.30
2017-09-21T12:44:16.583Z,12.23
2017-09-21T12:46:44.940Z,11.47
2017-09-21T12:49:13.257Z,11.63
2017-09-21T12:51:41.566Z,11.60
2017-09-21T12:54:09.921Z,11.17
2017-09-21T12:56:38.992Z,11.77
2017-09-21T12:59:07.302Z,12.47
2017-09-21T13:01:36.446Z,11.00
2017-09-21T13:04:05.518Z,9.80
2017-09-21T13:06:33.849Z,9.43
2017-09-21T13:09:02.943Z,9.87
2017-09-21T13:11:31.297Z,10.00
2017-09-21T13:14:00.393Z,8.73
2017-09-21T13:16:28.697Z,8.57
2017-09-21T13:18:56.985Z,8.67
2017-09-21T13:21:25.317Z,9.40
2017-09-21T13:23:53.638Z,8.07
2017-09-21T13:26:22.706Z,8.60
2017-09-21T13:28:51.042Z,9.33
2017-09-21T13:31:19.406Z,8.70
2017-09-21T13:33:47.722Z,7.03
2017-09-21T13:36:16.071Z,7.43
2017-09-21T13:38:45.158Z,7.67
2017-09-21T13:41:14.273Z,8.60
2017-09-21T13:43:42.600Z,7.67
2017-09-21T13:46:10.926Z,7.57
2017-09-21T13:48:39.212Z,6.83
2017-09-21T13:51:08.320Z,7.10
2017-09-21T13:53:37.392Z,7.03
2017-09-21T13:56:05.681Z,6.50
2017-09-21T13:58:34.039Z,6.77
2017-09-21T14:01:02.376Z,6.50
2017-09-21T14:03:30.690Z,5.63
2017-09-21T14:05:58.993Z,6.57
2017-09-21T14:08:27.321Z,6.87
2017-09-21T14:10:55.646Z,6.97
2017-09-21T14:13:24.032Z,7.07
2017-09-21T14:15:52.356Z,6.20
2017-09-21T14:18:20.683Z,6.03
2017-09-21T14:20:49.752Z,6.60
2017-09-21T14:23:18.788Z,6.10
2017-09-21T14:28:21.289Z,6.63
2017-09-21T14:30:49.618Z,5.67
2017-09-21T14:33:17.918Z,6.33
2017-09-21T14:35:46.254Z,5.60
2017-09-21T14:38:15.321Z,5.60
2017-09-21T14:40:43.656Z,6.60
2017-09-21T14:43:11.991Z,6.43
2017-09-21T14:45:40.325Z,5.43
2017-09-21T14:48:08.651Z,5.37
2017-09-21T14:50:36.941Z,6.37
2017-09-21T14:53:05.262Z,5.57
2017-09-21T14:55:33.569Z,5.30
2017-09-21T14:58:01.902Z,6.13
2017-09-21T15:00:30.971Z,5.40
2017-09-21T15:02:59.296Z,4.90
2017-09-21T15:05:27.616Z,5.30
2017-09-21T15:07:56.703Z,5.50
2017-09-21T15:10:25.021Z,5.03
2017-09-21T15:12:53.330Z,5.77
2017-09-21T15:15:21.657Z,6.20
2017-09-21T15:17:50.728Z,5.20
2017-09-21T15:20:19.114Z,6.37
2017-09-21T15:22:47.452Z,4.97
2017-09-21T15:25:15.802Z,4.63
2017-09-21T15:27:44.100Z,5.83
2017-09-21T15:30:12.425Z,5.87
2017-09-21T15:32:40.737Z,4.93
2017-09-21T15:35:09.139Z,5.10
2017-09-21T15:37:37.468Z,4.63
2017-09-21T15:40:05.795Z,4.93
2017-09-21T15:42:34.886Z,4.87
2017-09-21T15:45:03.275Z,4.30
2017-09-21T15:47:31.606Z,4.73
2017-09-21T15:49:59.945Z,4.07
2017-09-21T15:52:28.249Z,4.87
2017-09-21T15:54:56.653Z,5.00
2017-09-21T15:57:24.996Z,4.50
2017-09-21T15:59:53.294Z,4.50
2017-09-21T16:02:21.590Z,4.10
2017-09-21T16:04:49.944Z,3.80
2017-09-21T16:07:19.009Z,3.60
2017-09-21T16:09:47.327Z,4.20
2017-09-21T16:12:15.625Z,4.27
2017-09-21T16:14:43.957Z,4.40
2017-09-21T16:17:13.013Z,4.60
2017-09-21T16:19:41.358Z,4.80
2017-09-21T16:22:09.654Z,3.90
2017-09-21T16:24:37.946Z,4.53
2017-09-21T16:27:06.274Z,3.93
2017-09-21T16:29:34.585Z,4.60
2017-09-21T16:32:02.947Z,5.30
2017-09-21T16:34:31.257Z,5.13
2017-09-21T16:36:59.546Z,4.43
2017-09-21T16:39:27.932Z,5.30
2017-09-21T16:41:56.252Z,4.20
2017-09-21T16:44:24.626Z,5.10
2017-09-21T16:46:52.921Z,5.33
2017-09-21T16:49:21.247Z,5.97
2017-09-21T16:51:49.569Z,6.03
2017-09-21T16:54:17.874Z,6.17
2017-09-21T16:56:46.181Z,5.03
2017-09-21T16:59:14.508Z,5.30
2017-09-21T17:01:42.794Z,5.10
2017-09-21T17:04:11.089Z,4.97
2017-09-21T17:06:39.420Z,4.97
2017-09-21T17:09:08.493Z,5.93
2017-09-21T17:11:36.819Z,5.47
2017-09-21T17:14:06.725Z,5.50
2017-09-21T17:16:35.042Z,4.50
2017-09-21T17:19:03.369Z,4.83
2017-09-21T17:21:34.446Z,4.87
2017-09-21T17:24:03.545Z,4.83
2017-09-21T17:26:31.878Z,5.00
2017-09-21T17:29:00.942Z,6.57
2017-09-21T17:31:29.260Z,6.27
2017-09-21T17:33:57.566Z,6.37
2017-09-21T17:36:25.980Z,5.97
2017-09-21T17:38:54.273Z,6.30
2017-09-21T17:41:22.564Z,5.07
2017-09-21T17:43:50.884Z,5.50
2017-09-21T17:46:19.554Z,6.20
2017-09-21T17:48:47.913Z,6.20
2017-09-21T17:51:16.205Z,6.30
2017-09-21T17:53:44.514Z,5.60
2017-09-21T17:56:12.853Z,5.80
2017-09-21T17:58:41.157Z,6.10
2017-09-21T18:01:09.454Z,5.67
2017-09-21T18:03:37.774Z,5.90
2017-09-21T18:06:06.077Z,6.47
2017-09-21T18:08:34.474Z,6.97
2017-09-21T18:11:02.771Z,6.83
2017-09-21T18:13:31.118Z,6.47
2017-09-21T18:15:59.452Z,6.70
2017-09-21T18:18:28.513Z,6.07
2017-09-21T18:20:56.852Z,6.07
2017-09-21T18:23:33.469Z,6.53
2017-09-21T18:26:01.836Z,5.67
2017-09-21T18:28:30.913Z,5.83
2017-09-21T18:30:59.401Z,5.90
2017-09-21T18:33:27.725Z,5.67
2017-09-21T18:35:56.018Z,6.37
2017-09-21T18:38:24.382Z,6.53
2017-09-21T18:40:52.692Z,7.53
2017-09-21T18:43:20.993Z,8.00
2017-09-21T18:45:49.311Z,6.93
2017-09-21T18:48:17.669Z,7.33
2017-09-21T18:50:46.756Z,8.30
2017-09-21T18:53:15.052Z,7.00
2017-09-21T18:55:43.462Z,7.27
2017-09-21T18:58:11.767Z,7.63
2017-09-21T19:00:40.090Z,6.20
2017-09-21T19:03:09.353Z,6.60
2017-09-21T19:05:37.700Z,6.87
2017-09-21T19:08:06.022Z,6.13
2017-09-21T19:10:34.362Z,7.10
2017-09-21T19:13:02.662Z,7.17
2017-09-21T19:15:31.798Z,6.47
2017-09-21T19:18:00.113Z,6.20
2017-09-21T19:20:28.437Z,6.60
2017-09-21T19:22:56.737Z,6.57
2017-09-21T19:25:25.059Z,7.07
2017-09-21T19:27:53.380Z,6.80
2017-09-21T19:30:21.692Z,7.13
2017-09-21T19:32:50.006Z,7.57
2017-09-21T19:35:19.109Z,6.87
2017-09-21T19:37:47.438Z,7.43
2017-09-21T19:40:15.738Z,6.07
2017-09-21T19:42:44.823Z,6.87
2017-09-21T19:45:13.146Z,7.70
2017-09-21T19:47:42.225Z,7.00
2017-09-21T19:50:10.535Z,7.33
2017-09-21T19:52:38.906Z,7.53
2017-09-21T19:55:07.213Z,7.43
2017-09-21T19:57:35.505Z,7.50
2017-09-21T20:00:03.820Z,7.70
2017-09-21T20:02:32.148Z,7.40
2017-09-21T20:05:00.456Z,7.77
2017-09-21T20:07:28.790Z,7.37
2017-09-21T20:09:57.290Z,7.47
2017-09-21T20:12:25.622Z,7.50
2017-09-21T20:14:54.704Z,7.17
2017-09-21T20:17:23.002Z,7.73
2017-09-21T20:19:51.322Z,7.40
2017-09-21T20:22:19.609Z,7.50
2017-09-21T20:24:47.951Z,7.50
2017-09-21T20:27:16.250Z,6.53
2017-09-21T20:29:45.306Z,8.00
2017-09-21T20:32:13.635Z,7.57
2017-09-21T20:34:41.972Z,6.23
2017-09-21T20:37:10.292Z,6.77
2017-09-21T20:39:38.595Z,7.37
2017-09-21T20:42:06.937Z,8.50
2017-09-21T20:44:35.233Z,8.17
2017-09-21T20:47:03.572Z,7.33
2017-09-21T20:49:32.632Z,7.23
2017-09-21T20:52:00.949Z,7.77
2017-09-21T20:54:29.280Z,7.80
2017-09-21T20:56:57.569Z,7.30
2017-09-21T20:59:25.897Z,7.77
2017-09-21T21:01:54.211Z,8.00
2017-09-21T21:04:23.475Z,6.97
2017-09-21T21:06:51.805Z,8.03
2017-09-21T21:09:20.122Z,7.60
2017-09-21T21:11:48.553Z,7.30
2017-09-21T21:14:16.853Z,6.77
2017-09-21T21:16:45.221Z,7.53
2017-09-21T21:19:13.520Z,7.70
2017-09-21T21:21:41.827Z,7.40
2017-09-21T21:24:10.245Z,7.27
2017-09-21T21:26:39.340Z,8.13
2017-09-21T21:29:07.631Z,7.20
2017-09-21T21:31:35.921Z,6.70
2017-09-21T21:34:04.249Z,6.90
2017-09-21T21:36:32.556Z,7.60
2017-09-21T21:39:00.880Z,6.63
2017-09-21T21:41:29.183Z,6.93
2017-09-21T21:43:57.642Z,7.30
2017-09-21T21:46:26.069Z,7.90
2017-09-21T21:48:55.167Z,8.23
2017-09-21T21:51:23.461Z,7.17
2017-09-21T21:53:51.797Z,7.47
2017-09-21T21:56:20.105Z,6.60
2017-09-21T21:58:48.416Z,8.67
2017-09-21T22:01:16.745Z,6.60
2017-09-21T22:03:51.672Z,7.43
2017-09-21T22:06:20.008Z,7.23
2017-09-21T22:08:48.317Z,7.87
2017-09-21T22:11:16.677Z,7.40
2017-09-21T22:13:44.975Z,7.80
2017-09-21T22:16:13.272Z,7.00
2017-09-21T22:18:41.595Z,8.07
2017-09-21T22:21:09.900Z,6.90
2017-09-21T22:23:38.955Z,8.40
2017-09-21T22:26:07.281Z,7.20
2017-09-21T22:28:36.354Z,7.07
2017-09-21T22:31:04.649Z,7.23
2017-09-21T22:33:32.986Z,6.87
2017-09-21T22:36:01.306Z,6.73
2017-09-21T22:38:30.405Z,7.60
2017-09-21T22:40:58.696Z,6.93
2017-09-21T22:43:27.001Z,7.33
2017-09-21T22:45:55.364Z,7.23
2017-09-21T22:48:23.854Z,8.20
2017-09-21T22:50:52.161Z,6.57
2017-09-21T22:53:20.477Z,6.80
2017-09-21T22:55:48.777Z,7.43
2017-09-21T22:58:17.123Z,7.50
2017-09-21T23:00:45.418Z,6.17
2017-09-21T23:03:13.731Z,7.43
2017-09-21T23:05:42.062Z,7.43
2017-09-21T23:08:10.353Z,6.67
2017-09-21T23:10:40.195Z,7.00
2017-09-21T23:13:09.869Z,6.37
2017-09-21T23:15:38.174Z,7.13
2017-09-21T23:18:06.474Z,7.73
2017-09-21T23:20:35.561Z,7.90
2017-09-21T23:23:04.616Z,6.57
2017-09-21T23:25:32.951Z,7.43
2017-09-21T23:28:01.248Z,7.10
2017-09-21T23:30:29.542Z,7.23
2017-09-21T23:32:57.861Z,6.77
2017-09-21T23:35:26.178Z,8.20
2017-09-21T23:37:54.478Z,7.70
2017-09-21T23:40:22.809Z,6.80
2017-09-21T23:42:51.104Z,6.50
2017-09-21T23:45:20.182Z,7.27
2017-09-21T23:47:48.477Z,8.10
2017-09-21T23:50:16.801Z,8.83
2017-09-21T23:52:45.088Z,7.00
2017-09-21T23:55:13.411Z,7.30
2017-09-21T23:57:41.713Z,8.83
